Time;durP1;ratioP1;P1;durP2;ratioP2;P2;SDS_P1;SDS_P2;PMS_P1;PMS_P2;Temp;Humidity;BMP_temperature;BMP_pressure;BME280_temperature;BME280_humidity;BME280_pressure;Samples;Min_cycle;Max_cycle;Signal;HPM_P1;HPM_P2
2021/07/20 00:01:21;;;;;;;15.02;8.77;;;16.00;99.90;;;;;;5113360;28;20093;-69
2021/07/20 00:03:49;;;;;;;17.17;10.07;;;16.00;99.90;;;;;;5114886;28;20391;-68
2021/07/20 00:06:16;;;;;;;15.35;8.75;;;16.00;99.90;;;;;;5114633;28;20043;-68
2021/07/20 00:08:42;;;;;;;18.65;9.18;;;16.00;99.90;;;;;;5114405;28;20039;-67
2021/07/20 00:11:08;;;;;;;14.18;8.52;;;16.00;99.90;;;;;;5114822;28;20044;-67
2021/07/20 00:13:34;;;;;;;13.05;8.50;;;16.10;99.90;;;;;;5114417;28;20052;-68
2021/07/20 00:16:01;;;;;;;16.63;8.63;;;16.20;99.90;;;;;;5114196;28;20040;-68
2021/07/20 00:18:35;;;;;;;15.55;8.48;;;16.10;99.90;;;;;;5114414;28;20040;-69
2021/07/20 00:21:04;;;;;;;14.68;9.13;;;16.20;99.90;;;;;;5096259;28;20047;-68
2021/07/20 00:23:30;;;;;;;13.05;8.70;;;16.20;99.90;;;;;;5114212;28;20466;-68
2021/07/20 00:25:56;;;;;;;15.40;8.98;;;16.20;99.90;;;;;;5114665;28;20059;-68
2021/07/20 00:28:23;;;;;;;13.95;7.72;;;16.20;99.90;;;;;;5113207;28;20464;-69
2021/07/20 00:30:50;;;;;;;12.32;7.93;;;16.10;99.90;;;;;;5113877;28;20051;-68
2021/07/20 00:33:16;;;;;;;12.98;8.18;;;16.20;99.90;;;;;;5114111;28;20107;-68
2021/07/20 00:35:43;;;;;;;14.20;8.60;;;16.20;99.90;;;;;;5114034;28;20044;-68
2021/07/20 00:38:15;;;;;;;13.25;7.95;;;16.20;99.90;;;;;;5114227;28;20039;-67
2021/07/20 00:40:41;;;;;;;14.55;7.78;;;16.20;99.90;;;;;;5113690;28;20445;-68
2021/07/20 00:43:08;;;;;;;12.82;7.95;;;16.20;99.90;;;;;;5112900;28;20040;-69
2021/07/20 00:45:34;;;;;;;10.57;7.22;;;16.20;99.90;;;;;;5112897;28;20404;-67
2021/07/20 00:48:01;;;;;;;13.07;8.15;;;16.20;99.90;;;;;;5113917;28;20051;-66
2021/07/20 00:50:37;;;;;;;13.23;8.60;;;16.20;99.90;;;;;;5113462;28;20040;-66
2021/07/20 00:53:05;;;;;;;10.73;7.55;;;16.20;99.90;;;;;;5114147;28;20134;-66
2021/07/20 00:55:37;;;;;;;13.80;8.32;;;16.20;99.90;;;;;;5114011;28;20036;-66
2021/07/20 00:58:05;;;;;;;12.45;7.07;;;16.30;99.90;;;;;;5113849;28;20046;-66
2021/07/20 01:00:30;;;;;;;13.30;7.40;;;16.30;99.90;;;;;;5113320;28;20115;-66
2021/07/20 01:02:56;;;;;;;11.77;7.88;;;16.30;99.90;;;;;;5114067;28;20487;-66
2021/07/20 01:05:23;;;;;;;14.02;8.25;;;16.30;99.90;;;;;;5113799;28;20054;-67
2021/07/20 01:07:49;;;;;;;12.52;7.90;;;16.30;99.90;;;;;;5113667;28;20040;-66
2021/07/20 01:10:17;;;;;;;9.40;6.93;;;16.40;99.90;;;;;;5113647;28;20036;-66
2021/07/20 01:12:44;;;;;;;11.73;7.40;;;16.40;99.90;;;;;;5113474;28;20039;-66
2021/07/20 01:15:12;;;;;;;10.85;7.57;;;16.40;99.90;;;;;;5113468;28;20035;-67
2021/07/20 01:17:40;;;;;;;11.40;6.82;;;16.40;99.90;;;;;;5113891;28;20051;-67
2021/07/20 01:20:12;;;;;;;12.23;7.65;;;16.40;99.90;;;;;;5113454;28;20036;-67
2021/07/20 01:22:41;;;;;;;10.23;6.95;;;16.30;99.90;;;;;;5113769;28;20118;-66
2021/07/20 01:25:11;;;;;;;10.98;6.80;;;16.30;99.90;;;;;;5113914;28;20134;-66
2021/07/20 01:27:39;;;;;;;11.55;6.93;;;16.30;99.90;;;;;;5113678;28;20141;-66
2021/07/20 01:30:06;;;;;;;11.13;7.00;;;16.30;99.90;;;;;;5113188;28;20039;-66
2021/07/20 01:32:34;;;;;;;13.38;7.22;;;16.30;99.90;;;;;;5113769;28;20046;-67
2021/07/20 01:35:01;;;;;;;12.35;7.47;;;16.30;99.90;;;;;;5113710;28;20084;-66
2021/07/20 01:37:28;;;;;;;11.38;7.18;;;16.20;99.90;;;;;;5113540;28;20043;-66
2021/07/20 01:39:56;;;;;;;11.00;6.93;;;16.30;99.90;;;;;;5113214;28;20084;-66
2021/07/20 01:42:23;;;;;;;10.15;7.13;;;16.30;99.90;;;;;;5113574;28;20039;-66
2021/07/20 01:44:49;;;;;;;12.63;8.60;;;16.30;99.90;;;;;;5113476;28;20043;-67
2021/07/20 01:47:17;;;;;;;12.48;6.97;;;16.20;99.90;;;;;;5113243;28;20039;-66
2021/07/20 01:49:43;;;;;;;12.82;7.43;;;16.30;99.90;;;;;;5112999;28;20483;-66
2021/07/20 01:52:11;;;;;;;15.02;8.25;;;16.20;99.90;;;;;;5113787;28;20491;-67
2021/07/20 01:54:38;;;;;;;10.88;7.10;;;16.20;99.90;;;;;;5113643;28;20077;-67
2021/07/20 01:57:04;;;;;;;14.85;8.35;;;16.20;99.90;;;;;;5115888;28;20039;-66
2021/07/20 01:59:30;;;;;;;8.85;6.15;;;16.20;99.90;;;;;;5116770;28;20054;-66
2021/07/20 02:02:07;;;;;;;9.70;6.18;;;16.20;99.90;;;;;;5116791;28;20036;-66
2021/07/20 02:09:50;;;;;;;9.38;6.70;;;16.30;99.90;;;;;;5116610;28;20031;-66
2021/07/20 02:12:18;;;;;;;9.82;6.97;;;16.30;99.90;;;;;;5116464;28;20035;-66
2021/07/20 02:14:47;;;;;;;13.20;7.95;;;16.30;99.90;;;;;;5116700;28;20047;-66
2021/07/20 02:17:14;;;;;;;11.20;7.30;;;16.30;99.90;;;;;;5115425;28;20071;-66
2021/07/20 02:19:49;;;;;;;10.63;6.55;;;16.30;99.90;;;;;;5116497;28;20040;-66
2021/07/20 02:22:19;;;;;;;10.73;6.68;;;16.30;99.90;;;;;;5116422;28;20040;-66
2021/07/20 02:24:47;;;;;;;11.90;6.97;;;16.30;99.90;;;;;;5116444;28;20043;-66
2021/07/20 02:27:14;;;;;;;10.50;6.78;;;16.30;99.90;;;;;;5116342;28;20036;-66
2021/07/20 02:29:40;;;;;;;8.98;5.93;;;16.40;99.90;;;;;;5115998;28;20111;-66
2021/07/20 02:32:08;;;;;;;13.07;7.72;;;16.30;99.90;;;;;;5116575;28;20036;-66
2021/07/20 02:34:37;;;;;;;10.43;7.07;;;16.30;99.90;;;;;;5116089;28;20035;-66
2021/07/20 02:37:04;;;;;;;11.77;6.80;;;16.30;99.90;;;;;;5116215;27;20063;-66
2021/07/20 02:39:32;;;;;;;10.90;6.65;;;16.40;99.90;;;;;;5116352;28;20475;-67
2021/07/20 02:41:59;;;;;;;12.88;7.25;;;16.30;99.90;;;;;;5116707;28;20039;-66
2021/07/20 02:44:26;;;;;;;8.90;5.90;;;16.30;99.90;;;;;;5116116;28;20032;-66
2021/07/20 02:46:53;;;;;;;9.38;6.22;;;16.20;99.90;;;;;;5115910;28;20035;-67
2021/07/20 02:49:20;;;;;;;9.88;7.05;;;16.20;99.90;;;;;;5115665;28;20132;-67
2021/07/20 02:51:48;;;;;;;12.27;7.05;;;16.20;99.90;;;;;;5115834;28;20036;-66
2021/07/20 02:54:17;;;;;;;10.38;6.47;;;16.20;99.90;;;;;;5115830;28;20036;-66
2021/07/20 02:56:44;;;;;;;10.50;6.60;;;16.20;99.90;;;;;;5116231;28;20040;-66
2021/07/20 02:59:15;;;;;;;9.55;6.63;;;16.10;99.90;;;;;;5115814;28;20096;-66
2021/07/20 03:01:43;;;;;;;14.82;7.88;;;16.10;99.90;;;;;;5115761;28;20071;-66
2021/07/20 03:04:09;;;;;;;10.48;6.72;;;16.10;99.90;;;;;;5114679;28;20048;-67
2021/07/20 03:06:39;;;;;;;10.23;6.43;;;16.10;99.90;;;;;;5116093;28;20040;-67
2021/07/20 03:09:05;;;;;;;9.98;6.43;;;16.00;99.90;;;;;;5114471;28;20098;-66
2021/07/20 03:11:35;;;;;;;11.43;6.95;;;16.10;99.90;;;;;;5115571;28;20039;-66
2021/07/20 03:14:08;;;;;;;9.25;6.15;;;16.10;99.90;;;;;;5115398;28;20040;-66
2021/07/20 03:16:36;;;;;;;;;;;16.10;99.90;;;;;;5114664;28;20040;-66
2021/07/20 03:19:02;;;;;;;11.30;7.00;;;16.10;99.90;;;;;;5115030;28;19919;-66
2021/07/20 03:21:30;;;;;;;12.07;6.68;;;16.00;99.90;;;;;;5115358;28;20047;-66
2021/07/20 03:23:58;;;;;;;9.70;6.20;;;16.10;99.90;;;;;;5115833;28;20089;-66
2021/07/20 03:26:24;;;;;;;16.08;7.63;;;16.10;99.90;;;;;;5115308;28;20039;-66
2021/07/20 03:28:51;;;;;;;15.88;8.23;;;16.10;99.90;;;;;;5114963;28;20059;-67
2021/07/20 03:31:18;;;;;;;11.45;6.70;;;16.10;99.90;;;;;;5115353;28;20039;-66
2021/07/20 03:33:44;;;;;;;10.13;6.80;;;16.10;99.90;;;;;;5115053;28;20036;-66
2021/07/20 03:36:11;;;;;;;12.25;6.75;;;16.10;99.90;;;;;;5115192;28;20047;-66
2021/07/20 03:38:38;;;;;;;12.43;7.68;;;16.10;99.90;;;;;;5115161;28;20536;-66
2021/07/20 03:41:06;;;;;;;13.65;6.97;;;16.00;99.90;;;;;;5114917;28;20074;-67
2021/07/20 03:43:32;;;;;;;11.00;6.55;;;16.10;99.90;;;;;;5115249;28;20039;-67
2021/07/20 03:46:00;;;;;;;10.85;6.53;;;16.10;99.90;;;;;;5115103;28;20075;-67
2021/07/20 03:48:27;;;;;;;10.65;6.72;;;16.10;99.90;;;;;;5115394;28;20043;-67
2021/07/20 03:50:54;;;;;;;10.50;6.80;;;16.10;99.90;;;;;;5115459;27;20140;-69
2021/07/20 03:53:20;;;;;;;9.40;6.88;;;16.10;99.90;;;;;;5114687;28;20161;-69
2021/07/20 03:55:50;;;;;;;11.80;7.65;;;16.10;99.90;;;;;;5114480;28;20044;-69
2021/07/20 03:58:17;;;;;;;12.07;7.50;;;16.10;99.90;;;;;;5114972;28;20064;-69
2021/07/20 04:00:47;;;;;;;10.20;6.30;;;16.10;99.90;;;;;;5114394;28;20039;-67
2021/07/20 04:03:21;;;;;;;8.88;7.00;;;16.10;99.90;;;;;;5115236;28;20044;-67
2021/07/20 04:05:49;;;;;;;11.57;6.72;;;16.20;99.90;;;;;;5114639;28;20047;-66
2021/07/20 04:08:18;;;;;;;12.98;7.63;;;16.10;99.90;;;;;;5115071;28;20047;-66
2021/07/20 04:10:50;;;;;;;11.00;6.60;;;16.20;99.90;;;;;;5113220;28;20050;-67
2021/07/20 04:13:16;;;;;;;11.68;7.13;;;16.20;99.90;;;;;;5114713;28;20038;-68
2021/07/20 04:15:46;;;;;;;12.70;7.00;;;16.20;99.90;;;;;;5114733;28;20046;-68
2021/07/20 04:18:13;;;;;;;11.30;7.28;;;16.20;99.90;;;;;;5114356;28;20437;-68
2021/07/20 04:20:40;;;;;;;10.95;6.97;;;16.20;99.90;;;;;;5113866;28;20047;-68
2021/07/20 04:23:07;;;;;;;11.30;7.70;;;16.20;99.90;;;;;;5114307;28;20112;-68
2021/07/20 04:25:36;;;;;;;11.77;7.22;;;16.20;99.90;;;;;;5114166;28;20047;-68
2021/07/20 04:28:03;;;;;;;11.18;6.78;;;16.20;99.90;;;;;;5114063;28;20039;-68
2021/07/20 04:30:29;;;;;;;11.63;6.70;;;16.20;99.90;;;;;;5113678;28;20118;-68
2021/07/20 04:32:55;;;;;;;9.05;6.65;;;16.20;99.90;;;;;;5113989;28;20126;-68
2021/07/20 04:35:22;;;;;;;10.15;6.60;;;16.20;99.90;;;;;;5113901;28;20043;-68
2021/07/20 04:37:51;;;;;;;11.15;6.78;;;16.20;99.90;;;;;;5113932;28;20381;-68
2021/07/20 04:40:17;;;;;;;12.18;6.97;;;16.20;99.90;;;;;;5113549;28;20506;-68
2021/07/20 04:42:43;;;;;;;16.33;8.25;;;16.20;99.90;;;;;;5114356;28;20058;-68
2021/07/20 04:45:11;;;;;;;10.40;6.30;;;16.20;99.90;;;;;;5113787;28;20418;-68
2021/07/20 04:47:38;;;;;;;12.55;7.85;;;16.20;99.90;;;;;;5113995;28;20039;-68
2021/07/20 04:50:07;;;;;;;14.60;6.85;;;16.20;99.90;;;;;;5113417;28;20035;-68
2021/07/20 04:52:33;;;;;;;12.02;7.43;;;16.30;99.90;;;;;;5113797;28;20036;-68
2021/07/20 04:55:00;;;;;;;12.88;7.10;;;16.40;99.90;;;;;;5114082;28;20044;-68
2021/07/20 04:57:25;;;;;;;11.93;6.93;;;16.30;99.90;;;;;;5113620;28;20040;-68
2021/07/20 04:59:51;;;;;;;12.85;7.32;;;16.30;99.90;;;;;;5113465;28;20039;-68
2021/07/20 05:02:17;;;;;;;10.43;7.28;;;16.30;99.90;;;;;;5113963;28;20066;-68
2021/07/20 05:04:44;;;;;;;11.25;7.50;;;16.40;99.90;;;;;;5113855;28;20495;-68
2021/07/20 05:07:13;;;;;;;12.82;7.97;;;16.30;99.90;;;;;;5113637;28;20035;-68
2021/07/20 05:09:39;;;;;;;11.65;6.85;;;16.30;99.90;;;;;;5113385;28;20046;-68
2021/07/20 05:12:06;;;;;;;11.02;6.90;;;16.30;99.90;;;;;;5113709;28;20047;-68
2021/07/20 05:14:33;;;;;;;12.70;7.00;;;16.30;99.90;;;;;;5113440;28;20036;-68
2021/07/20 05:16:58;;;;;;;12.98;7.68;;;16.30;99.90;;;;;;5114053;28;20040;-68
2021/07/20 05:19:25;;;;;;;12.32;7.00;;;16.40;99.90;;;;;;5113383;28;20063;-68
2021/07/20 05:21:51;;;;;;;15.23;7.78;;;16.30;99.90;;;;;;5113422;28;20070;-68
2021/07/20 05:24:18;;;;;;;11.88;6.68;;;16.30;99.90;;;;;;5113934;28;20035;-68
2021/07/20 05:26:46;;;;;;;12.82;7.45;;;16.30;99.90;;;;;;5113688;28;20048;-68
2021/07/20 05:29:16;;;;;;;13.27;7.45;;;16.30;99.90;;;;;;5113737;28;20031;-68
2021/07/20 05:31:45;;;;;;;13.52;8.93;;;16.30;99.90;;;;;;5115599;28;20042;-68
2021/07/20 05:34:13;;;;;;;12.95;8.63;;;16.30;99.90;;;;;;5117698;28;20551;-68
2021/07/20 05:36:39;;;;;;;11.48;7.57;;;16.40;99.90;;;;;;5118040;28;20479;-68
2021/07/20 05:39:05;;;;;;;13.73;7.40;;;16.40;99.90;;;;;;5117463;28;20040;-68
2021/07/20 05:41:31;;;;;;;12.15;7.53;;;16.40;99.90;;;;;;5117423;28;20085;-68
2021/07/20 05:43:57;;;;;;;12.80;7.43;;;16.50;99.90;;;;;;5117260;28;20059;-68
2021/07/20 05:46:23;;;;;;;12.90;8.05;;;16.50;99.90;;;;;;5117490;28;20055;-68
2021/07/20 05:48:49;;;;;;;13.40;8.23;;;16.50;99.90;;;;;;5116856;28;20043;-68
2021/07/20 05:51:16;;;;;;;16.10;8.43;;;16.60;99.90;;;;;;5117163;28;20388;-68
2021/07/20 05:53:43;;;;;;;13.20;8.43;;;16.70;99.90;;;;;;5117483;28;20040;-68
2021/07/20 05:56:08;;;;;;;13.07;7.20;;;16.70;99.90;;;;;;5117294;28;20043;-68
2021/07/20 05:58:36;;;;;;;12.70;8.85;;;16.80;99.90;;;;;;5116782;28;20123;-68
2021/07/20 06:01:04;;;;;;;13.60;7.50;;;16.80;99.90;;;;;;5117009;28;20534;-68
2021/07/20 06:03:32;;;;;;;13.27;7.78;;;16.80;99.90;;;;;;5116907;28;20090;-68
2021/07/20 06:05:59;;;;;;;12.98;7.78;;;16.80;99.90;;;;;;5117355;28;20048;-68
2021/07/20 06:08:26;;;;;;;12.57;7.90;;;16.90;99.90;;;;;;5116638;28;20038;-68
2021/07/20 06:10:55;;;;;;;13.45;7.55;;;16.90;99.90;;;;;;5116353;28;20074;-68
2021/07/20 06:13:24;;;;;;;13.63;7.63;;;16.90;99.90;;;;;;5116706;28;20123;-68
2021/07/20 06:15:51;;;;;;;13.65;7.47;;;17.00;99.90;;;;;;5116904;28;20088;-67
2021/07/20 06:18:18;;;;;;;11.30;6.63;;;17.00;99.90;;;;;;5116876;28;20035;-67
2021/07/20 06:20:55;;;;;;;15.35;8.13;;;17.00;99.90;;;;;;5116429;28;20036;-68
2021/07/20 06:23:23;;;;;;;12.07;7.25;;;17.10;99.90;;;;;;5116422;27;20042;-68
2021/07/20 06:25:51;;;;;;;11.60;7.97;;;17.10;99.90;;;;;;5116362;28;20115;-68
2021/07/20 06:28:18;;;;;;;10.70;6.82;;;17.20;99.90;;;;;;5116338;28;20046;-68
2021/07/20 06:30:45;;;;;;;15.20;7.75;;;17.20;99.90;;;;;;5116259;28;20039;-68
2021/07/20 06:33:13;;;;;;;11.63;7.25;;;17.30;99.90;;;;;;5116244;28;20160;-68
2021/07/20 06:35:41;;;;;;;11.02;6.78;;;17.40;99.90;;;;;;5116393;28;20084;-68
2021/07/20 06:38:11;;;;;;;11.20;7.20;;;17.40;99.90;;;;;;5116283;28;20051;-69
2021/07/20 06:40:37;;;;;;;9.75;6.60;;;17.40;99.90;;;;;;5116093;28;20027;-69
2021/07/20 06:43:03;;;;;;;12.07;7.63;;;17.50;99.90;;;;;;5114951;28;20043;-69
2021/07/20 06:45:29;;;;;;;12.80;7.50;;;17.50;99.90;;;;;;5116107;28;20047;-68
2021/07/20 06:47:55;;;;;;;11.35;7.75;;;17.50;99.90;;;;;;5116199;28;20055;-68
2021/07/20 06:50:20;;;;;;;10.18;7.28;;;17.60;99.90;;;;;;5116086;28;20035;-68
2021/07/20 06:52:48;;;;;;;14.48;7.90;;;17.60;99.90;;;;;;5116445;28;20063;-68
2021/07/20 06:55:15;;;;;;;10.93;8.18;;;17.80;99.90;;;;;;5116214;27;20039;-68
2021/07/20 06:57:44;;;;;;;13.02;8.38;;;17.80;99.90;;;;;;5115880;28;20074;-68
2021/07/20 07:00:11;;;;;;;12.35;8.32;;;17.90;99.90;;;;;;5115436;28;20047;-68
2021/07/20 07:02:38;;;;;;;10.63;7.95;;;18.00;99.90;;;;;;5116228;28;20049;-68
2021/07/20 07:05:13;;;;;;;11.73;7.15;;;18.10;99.90;;;;;;5115699;28;20071;-68
2021/07/20 07:07:42;;;;;;;12.02;7.18;;;18.60;99.90;;;;;;5116688;28;20047;-68
2021/07/20 07:10:09;;;;;;;11.77;7.38;;;19.20;99.90;;;;;;5115405;28;20044;-68
2021/07/20 07:12:37;;;;;;;11.90;7.10;;;19.60;99.90;;;;;;5115688;28;20461;-68
2021/07/20 07:15:07;;;;;;;12.43;6.68;;;20.00;99.90;;;;;;5115807;28;20119;-68
2021/07/20 07:17:33;;;;;;;12.02;6.85;;;20.30;99.40;;;;;;5115790;28;20040;-68
2021/07/20 07:20:01;;;;;;;12.80;7.35;;;20.60;99.10;;;;;;5115274;28;20101;-68
2021/07/20 07:22:28;;;;;;;9.77;6.43;;;20.80;98.60;;;;;;5115426;28;20040;-68
2021/07/20 07:24:54;;;;;;;9.68;6.28;;;21.10;97.40;;;;;;5115435;28;20048;-68
2021/07/20 07:27:22;;;;;;;11.35;6.70;;;21.20;97.60;;;;;;5115809;28;20043;-68
2021/07/20 07:29:51;;;;;;;10.50;6.55;;;21.40;97.20;;;;;;5115124;28;20144;-68
2021/07/20 07:32:17;;;;;;;10.57;6.13;;;21.80;96.00;;;;;;5114997;28;20122;-68
2021/07/20 07:34:43;;;;;;;10.38;6.78;;;21.80;96.60;;;;;;5114998;28;20039;-66
2021/07/20 07:37:09;;;;;;;10.82;6.45;;;22.00;97.20;;;;;;5115639;28;20043;-67
2021/07/20 07:39:35;;;;;;;9.52;6.10;;;22.10;96.10;;;;;;5114862;28;20495;-67
2021/07/20 07:42:01;;;;;;;8.98;6.20;;;22.40;93.90;;;;;;5115019;28;20040;-67
2021/07/20 07:44:28;;;;;;;9.60;6.25;;;22.40;93.60;;;;;;5115027;28;20036;-67
2021/07/20 07:46:55;;;;;;;8.40;6.22;;;22.70;93.40;;;;;;5114664;28;20406;-67
2021/07/20 07:49:21;;;;;;;10.15;6.88;;;22.70;93.10;;;;;;5114506;28;20036;-67
2021/07/20 07:51:49;;;;;;;9.40;6.45;;;22.80;93.70;;;;;;5114749;28;20169;-67
2021/07/20 07:54:16;;;;;;;10.45;5.80;;;22.80;92.90;;;;;;5114323;28;20045;-67
2021/07/20 07:56:43;;;;;;;10.35;6.32;;;23.20;93.60;;;;;;5114818;28;20130;-67
2021/07/20 07:59:10;;;;;;;8.27;5.75;;;23.20;92.40;;;;;;5114474;28;20123;-67
2021/07/20 08:01:42;;;;;;;7.65;6.10;;;23.00;89.80;;;;;;5114681;28;20040;-67
2021/07/20 08:04:08;;;;;;;9.13;5.87;;;23.20;89.40;;;;;;5114973;28;20050;-67
2021/07/20 08:06:34;;;;;;;8.25;6.10;;;23.20;86.10;;;;;;5114440;28;20044;-67
2021/07/20 08:09:03;;;;;;;8.40;5.75;;;23.20;87.50;;;;;;5114173;27;20055;-67
2021/07/20 08:11:29;;;;;;;8.38;6.35;;;23.30;88.80;;;;;;5114434;28;20048;-67
2021/07/20 08:13:58;;;;;;;9.50;6.32;;;23.20;87.30;;;;;;5114269;28;20087;-66
2021/07/20 08:16:28;;;;;;;9.70;6.32;;;23.50;86.90;;;;;;5114237;28;20114;-67
2021/07/20 08:18:55;;;;;;;9.32;5.95;;;23.50;84.30;;;;;;5114328;28;20043;-67
2021/07/20 08:21:21;;;;;;;8.70;6.03;;;23.70;85.70;;;;;;5114523;28;20093;-67
2021/07/20 08:23:47;;;;;;;8.65;6.38;;;23.70;85.00;;;;;;5114461;28;20437;-67
2021/07/20 08:26:23;;;;;;;7.30;5.82;;;23.70;81.70;;;;;;5114231;28;20407;-67
2021/07/20 08:29:04;;;;;;;8.35;5.57;;;23.70;82.00;;;;;;5114159;28;20043;-66
2021/07/20 08:31:38;;;;;;;7.53;5.70;;;23.60;82.00;;;;;;5114348;28;20071;-67
2021/07/20 08:34:06;;;;;;;8.52;6.03;;;23.60;85.60;;;;;;5113249;28;20063;-67
2021/07/20 08:36:38;;;;;;;6.97;5.80;;;23.50;84.00;;;;;;5113913;28;20040;-67
2021/07/20 08:39:05;;;;;;;8.52;6.30;;;23.30;83.30;;;;;;5113793;28;20046;-67
2021/07/20 08:41:38;;;;;;;6.88;5.53;;;22.90;84.70;;;;;;5114076;28;20071;-67
2021/07/20 08:44:14;;;;;;;8.27;5.90;;;23.30;86.40;;;;;;5113406;28;20043;-67
2021/07/20 08:47:24;;;;;;;7.88;6.10;;;23.20;87.20;;;;;;5114453;28;20047;-67
2021/07/20 08:50:05;;;;;;;8.38;5.95;;;22.90;87.20;;;;;;5113833;28;20039;-67
2021/07/20 08:52:42;;;;;;;7.93;5.63;;;22.60;87.50;;;;;;5114076;28;20063;-67
2021/07/20 08:55:21;;;;;;;9.43;6.28;;;22.10;87.00;;;;;;5114274;28;20071;-67
2021/07/20 08:58:02;;;;;;;8.38;5.75;;;22.20;90.20;;;;;;5113726;28;20116;-67
2021/07/20 09:00:37;;;;;;;8.95;6.18;;;22.40;90.30;;;;;;5113657;28;20046;-67
2021/07/20 09:03:32;;;;;;;9.93;6.18;;;22.40;89.00;;;;;;5113768;28;20380;-67
2021/07/20 09:06:04;;;;;;;11.55;5.82;;;22.50;90.50;;;;;;5114493;28;20542;-68
2021/07/20 09:08:38;;;;;;;10.37;7.00;;;22.60;90.30;;;;;;5117693;28;20046;-68
2021/07/20 09:11:19;;;;;;;11.63;6.85;;;22.40;89.30;;;;;;5117952;28;20036;-68
2021/07/20 09:13:53;;;;;;;8.38;5.78;;;22.80;89.30;;;;;;5117784;28;20039;-67
2021/07/20 09:16:33;;;;;;;7.55;5.78;;;23.10;88.20;;;;;;5118470;28;20043;-67
2021/07/20 09:19:16;;;;;;;7.88;5.07;;;23.30;82.70;;;;;;5117418;28;20558;-68
2021/07/20 09:21:49;;;;;;;7.35;4.80;;;23.10;77.50;;;;;;5117938;28;20040;-68
2021/07/20 09:24:37;;;;;;;7.10;4.93;;;23.20;74.80;;;;;;5117938;28;20063;-67
2021/07/20 09:27:19;;;;;;;7.68;5.50;;;22.90;75.70;;;;;;5117570;28;20080;-69
2021/07/20 09:29:47;;;;;;;7.15;5.18;;;23.10;73.70;;;;;;5117478;28;20110;-68
2021/07/20 09:32:51;;;;;;;7.15;5.40;;;23.30;72.90;;;;;;5117503;28;20550;-68
2021/07/20 09:35:28;;;;;;;8.82;4.97;;;23.40;75.30;;;;;;5117512;28;20048;-68
2021/07/20 09:38:10;;;;;;;7.43;5.43;;;23.80;77.30;;;;;;5117494;28;20430;-68
2021/07/20 09:41:13;;;;;;;5.80;4.75;;;23.00;72.40;;;;;;5117303;28;20044;-68
2021/07/20 09:44:01;;;;;;;10.43;5.10;;;22.90;81.50;;;;;;5117587;28;20032;-68
2021/07/20 09:47:13;;;;;;;7.60;5.07;;;22.60;79.00;;;;;;5117258;28;20093;-68
2021/07/20 09:50:08;;;;;;;9.65;5.22;;;22.30;85.90;;;;;;5078707;27;20128;-68
2021/07/20 09:52:42;;;;;;;8.13;6.07;;;22.10;82.90;;;;;;5117332;27;20043;-67
2021/07/20 09:55:32;;;;;;;7.80;4.95;;;21.70;85.60;;;;;;5117113;28;20096;-68
2021/07/20 09:58:26;;;;;;;5.43;4.20;;;21.30;85.10;;;;;;5117622;28;20044;-67
2021/07/20 10:01:14;;;;;;;8.63;5.32;;;21.50;90.60;;;;;;5116708;28;20047;-67
2021/07/20 10:03:53;;;;;;;6.80;4.97;;;21.40;93.20;;;;;;5117405;28;20483;-67
2021/07/20 10:06:48;;;;;;;7.28;4.55;;;21.40;93.40;;;;;;5117391;28;20077;-67
2021/07/20 10:09:40;;;;;;;7.10;5.10;;;21.40;94.60;;;;;;5116792;28;20064;-67
2021/07/20 10:12:18;;;;;;;6.00;3.97;;;21.10;91.60;;;;;;5117155;28;20044;-68
2021/07/20 10:15:08;;;;;;;6.45;5.07;;;21.30;90.20;;;;;;5116791;28;20493;-68
2021/07/20 10:17:50;;;;;;;5.80;4.57;;;21.40;90.00;;;;;;5115362;28;20482;-71
2021/07/20 10:20:25;;;;;;;8.10;5.32;;;21.20;91.30;;;;;;5115035;28;20407;-72
2021/07/20 10:23:05;;;;;;;8.80;5.55;;;21.60;92.50;;;;;;5116567;28;20036;-70
2021/07/20 10:25:48;;;;;;;5.10;4.03;;;21.90;94.60;;;;;;5116688;28;20518;-70
2021/07/20 10:28:23;;;;;;;6.10;4.13;;;22.20;91.60;;;;;;5116697;28;20114;-70
2021/07/20 10:31:07;;;;;;;7.93;4.97;;;22.40;91.70;;;;;;5115141;28;20048;-71
2021/07/20 10:33:40;;;;;;;6.07;4.30;;;22.70;91.80;;;;;;5116271;28;20043;-70
2021/07/20 10:36:29;;;;;;;5.15;4.15;;;22.80;90.20;;;;;;5116193;28;20039;-70
2021/07/20 10:39:09;;;;;;;5.95;4.15;;;22.70;88.10;;;;;;5115723;28;20062;-70
2021/07/20 10:41:43;;;;;;;8.07;3.97;;;22.70;88.60;;;;;;5116353;28;20043;-70
2021/07/20 10:44:19;;;;;;;5.40;3.78;;;22.30;86.60;;;;;;5116501;28;20040;-70
2021/07/20 10:46:47;;;;;;;5.78;3.85;;;22.10;89.20;;;;;;5115170;28;20046;-70
2021/07/20 10:49:24;;;;;;;6.45;4.22;;;22.10;90.40;;;;;;5115837;27;20046;-70
2021/07/20 10:52:01;;;;;;;6.47;3.97;;;21.80;83.80;;;;;;5116399;28;20066;-70
2021/07/20 10:54:30;;;;;;;6.68;4.60;;;21.70;85.40;;;;;;5116229;28;20062;-70
2021/07/20 10:56:58;;;;;;;5.63;4.07;;;21.80;91.40;;;;;;5115948;27;20126;-70
2021/07/20 10:59:48;;;;;;;7.28;4.75;;;21.70;89.80;;;;;;5115359;28;20490;-71
2021/07/20 11:02:30;;;;;;;6.65;5.03;;;21.60;92.20;;;;;;5116459;28;20036;-71
2021/07/20 11:05:05;;;;;;;5.68;4.40;;;21.20;89.30;;;;;;5116137;28;20031;-70
2021/07/20 11:07:34;;;;;;;7.30;5.15;;;21.40;87.70;;;;;;5114727;28;20032;-70
2021/07/20 11:10:08;;;;;;;6.28;4.40;;;21.40;87.00;;;;;;5115415;28;20071;-70
2021/07/20 11:12:37;;;;;;;6.97;4.13;;;21.40;90.80;;;;;;5115545;27;20407;-71
2021/07/20 11:15:04;;;;;;;6.43;4.30;;;21.40;91.70;;;;;;5114434;28;20043;-70
2021/07/20 11:17:33;;;;;;;8.02;4.97;;;21.30;91.50;;;;;;5115715;28;20076;-71
2021/07/20 11:20:02;;;;;;;6.63;4.20;;;21.00;91.10;;;;;;5115324;28;20100;-72
2021/07/20 11:22:29;;;;;;;6.85;4.68;;;21.10;92.20;;;;;;5115654;28;20039;-72
2021/07/20 11:24:55;;;;;;;6.38;4.72;;;21.10;93.00;;;;;;5115728;28;20482;-72
2021/07/20 11:27:22;;;;;;;6.00;4.40;;;21.10;92.90;;;;;;5115938;28;20108;-69
2021/07/20 11:29:49;;;;;;;7.25;4.25;;;21.30;95.90;;;;;;5114359;28;20115;-71
2021/07/20 11:32:23;;;;;;;10.50;5.43;;;21.50;95.40;;;;;;5115185;28;20032;-71
2021/07/20 11:35:01;;;;;;;7.30;4.85;;;21.70;95.60;;;;;;5115081;28;20070;-70
2021/07/20 11:37:41;;;;;;;8.80;5.18;;;21.60;93.40;;;;;;5115596;28;20042;-70
2021/07/20 11:40:13;;;;;;;8.00;4.53;;;21.40;93.20;;;;;;5114552;28;20089;-70
2021/07/20 11:42:49;;;;;;;6.10;4.53;;;21.40;95.10;;;;;;5114253;28;20111;-70
2021/07/20 11:45:16;;;;;;;7.93;4.50;;;21.50;95.40;;;;;;5115185;28;20036;-70
2021/07/20 11:47:56;;;;;;;6.50;4.10;;;21.20;94.10;;;;;;5115034;27;20036;-70
2021/07/20 11:50:32;;;;;;;6.68;4.65;;;21.20;94.30;;;;;;5115022;28;20067;-70
2021/07/20 11:53:23;;;;;;;5.18;4.15;;;21.10;94.20;;;;;;5115270;28;20190;-70
2021/07/20 11:55:59;;;;;;;6.00;4.75;;;21.20;93.50;;;;;;5113577;28;20040;-69
2021/07/20 11:58:53;;;;;;;5.65;4.50;;;21.30;93.00;;;;;;5114662;28;20127;-71
2021/07/20 12:01:36;;;;;;;;;;;21.40;93.70;;;;;;5114107;28;20158;-70
2021/07/20 12:04:27;;;;;;;6.28;4.45;;;21.30;97.70;;;;;;5114578;28;20390;-70
2021/07/20 12:07:08;;;;;;;7.80;4.40;;;21.30;94.20;;;;;;5114745;28;20050;-70
2021/07/20 12:09:43;;;;;;;7.53;4.28;;;21.30;94.90;;;;;;5114460;28;20114;-72
2021/07/20 12:12:10;;;;;;;7.05;4.20;;;21.20;94.60;;;;;;5114496;28;20040;-72
2021/07/20 12:14:36;;;;;;;6.95;4.75;;;21.00;95.10;;;;;;5114697;28;20040;-72
2021/07/20 12:17:03;;;;;;;5.57;3.55;;;21.20;96.60;;;;;;5114426;28;20039;-71
2021/07/20 12:19:38;;;;;;;6.25;4.20;;;21.10;97.40;;;;;;5114139;28;20039;-71
2021/07/20 12:22:08;;;;;;;7.30;4.88;;;20.80;96.60;;;;;;5113412;28;20053;-71
2021/07/20 12:24:35;;;;;;;6.45;4.28;;;21.10;98.10;;;;;;5113161;28;20101;-71
2021/07/20 12:27:05;;;;;;;5.80;4.20;;;20.90;96.70;;;;;;5114265;28;20077;-71
2021/07/20 12:29:30;;;;;;;6.25;4.30;;;20.90;96.40;;;;;;5113118;28;20070;-71
2021/07/20 12:31:59;;;;;;;4.57;3.38;;;20.80;96.20;;;;;;5114332;28;20059;-71
2021/07/20 12:34:25;;;;;;;6.05;4.05;;;21.00;97.90;;;;;;5114337;28;20046;-71
2021/07/20 12:36:51;;;;;;;6.72;3.80;;;21.00;96.80;;;;;;5114024;28;20163;-71
2021/07/20 12:39:19;;;;;;;5.30;3.60;;;21.20;96.20;;;;;;5113840;28;20069;-71
2021/07/20 12:41:49;;;;;;;7.03;3.78;;;21.30;95.40;;;;;;5114245;28;20086;-71
2021/07/20 12:44:16;;;;;;;4.93;3.58;;;21.10;95.80;;;;;;5114276;28;20420;-71
2021/07/20 12:46:43;;;;;;;7.13;4.35;;;21.00;95.90;;;;;;5113768;28;20047;-71
2021/07/20 12:49:13;;;;;;;4.55;3.60;;;21.20;96.10;;;;;;5113561;28;20040;-71
2021/07/20 12:51:54;;;;;;;5.28;4.10;;;21.30;96.20;;;;;;5113864;28;20499;-71
2021/07/20 12:54:36;;;;;;;5.47;4.07;;;21.30;96.40;;;;;;5113799;28;20039;-71
2021/07/20 12:57:04;;;;;;;4.80;3.53;;;21.40;95.10;;;;;;5114258;28;20455;-71
2021/07/20 12:59:32;;;;;;;4.68;3.83;;;21.50;96.20;;;;;;5113514;28;20051;-71
2021/07/20 13:01:58;;;;;;;7.78;4.13;;;21.40;96.30;;;;;;5113969;28;20032;-70
2021/07/20 13:04:24;;;;;;;5.47;3.90;;;21.50;96.00;;;;;;5113884;28;20063;-71